Time;durP1;ratioP1;P1;durP2;ratioP2;P2;SDS_P1;SDS_P2;PMS_P1;PMS_P2;Temp;Humidity;BMP_temperature;BMP_pressure;BME280_temperature;BME280_humidity;BME280_pressure;Samples;Min_cycle;Max_cycle;Signal;HPM_P1;HPM_P2
2022/09/07 00:01:40;;;;;;;6.10;5.50;;;21.10;61.50;;;;;;5106679;27;20374;-68
2022/09/07 00:04:06;;;;;;;7.20;5.97;;;21.00;61.40;;;;;;5122752;27;20023;-68
2022/09/07 00:06:35;;;;;;;6.00;5.35;;;21.00;61.50;;;;;;5105056;27;20011;-68
2022/09/07 00:09:02;;;;;;;6.70;5.82;;;21.00;61.50;;;;;;5106144;27;20474;-68
2022/09/07 00:11:28;;;;;;;15.90;6.50;;;21.00;61.60;;;;;;5123040;27;20369;-68
2022/09/07 00:13:54;;;;;;;6.13;5.28;;;20.90;61.70;;;;;;5125293;27;20106;-68
2022/09/07 00:16:26;;;;;;;7.22;5.13;;;20.90;61.70;;;;;;5122335;27;20031;-69
2022/09/07 00:18:57;;;;;;;6.30;5.70;;;20.90;62.00;;;;;;5123364;27;20529;-68
2022/09/07 00:21:24;;;;;;;8.23;5.55;;;20.80;61.90;;;;;;5124254;27;20015;-69
2022/09/07 00:23:50;;;;;;;7.72;5.72;;;20.90;62.00;;;;;;5122977;27;20027;-68
2022/09/07 00:26:22;;;;;;;6.40;5.57;;;20.80;62.10;;;;;;5122663;27;20084;-68
2022/09/07 00:28:49;;;;;;;9.10;6.55;;;20.80;62.40;;;;;;5122668;27;20019;-69
2022/09/07 00:31:22;;;;;;;6.75;6.00;;;20.80;62.50;;;;;;5122662;27;20023;-68
2022/09/07 00:33:50;;;;;;;11.60;5.40;;;20.70;62.70;;;;;;5122984;27;20497;-68
2022/09/07 00:36:17;;;;;;;8.52;6.47;;;20.70;62.50;;;;;;5122462;27;20034;-68
2022/09/07 00:38:43;;;;;;;13.85;6.60;;;20.60;62.60;;;;;;5123580;27;20079;-68
2022/09/07 00:41:10;;;;;;;11.63;6.63;;;20.70;62.70;;;;;;5121887;27;20027;-68
2022/09/07 00:43:37;;;;;;;11.85;6.22;;;20.60;62.60;;;;;;5124686;27;20019;-68
2022/09/07 00:46:05;;;;;;;17.02;6.40;;;20.60;62.80;;;;;;5103300;27;20015;-68
2022/09/07 00:48:49;;;;;;;10.60;6.72;;;20.60;63.40;;;;;;5122864;27;20084;-69
2022/09/07 00:51:20;;;;;;;14.60;7.10;;;20.50;63.60;;;;;;5123233;27;20019;-68
2022/09/07 00:53:54;;;;;;;28.80;8.13;;;20.50;63.60;;;;;;5121923;27;20103;-69
2022/09/07 00:56:22;;;;;;;18.45;7.93;;;20.50;64.60;;;;;;5121757;27;20569;-68
2022/09/07 00:58:49;;;;;;;20.38;8.15;;;20.50;64.40;;;;;;5122128;27;20100;-68
2022/09/07 01:01:16;;;;;;;13.52;7.40;;;20.50;64.90;;;;;;5123017;27;20084;-68
2022/09/07 01:03:47;;;;;;;20.42;7.45;;;20.50;64.60;;;;;;5121294;27;20410;-68
2022/09/07 01:06:19;;;;;;;13.45;6.90;;;20.50;64.70;;;;;;5122277;27;20022;-69
2022/09/07 01:08:48;;;;;;;14.15;7.53;;;20.50;64.60;;;;;;5104453;27;20027;-68
2022/09/07 01:11:16;;;;;;;11.93;6.63;;;20.50;64.30;;;;;;5122631;27;20023;-68
2022/09/07 01:13:43;;;;;;;10.98;7.07;;;20.50;64.10;;;;;;5121193;27;20024;-68
2022/09/07 01:16:33;;;;;;;16.90;7.57;;;20.50;64.20;;;;;;5122731;27;20023;-68
2022/09/07 01:19:37;;;;;;;11.95;6.82;;;20.50;64.40;;;;;;5123394;27;20066;-68
2022/09/07 01:22:08;;;;;;;12.77;6.80;;;20.40;64.20;;;;;;5123195;27;20110;-68
2022/09/07 01:24:52;;;;;;;6.63;5.95;;;20.50;64.20;;;;;;5122437;27;20065;-68
2022/09/07 01:27:30;;;;;;;8.32;6.40;;;20.40;64.30;;;;;;5123106;27;20019;-69
2022/09/07 01:30:16;;;;;;;9.95;6.13;;;20.40;63.90;;;;;;5121874;27;20501;-68
2022/09/07 01:32:48;;;;;;;8.32;5.97;;;20.30;64.00;;;;;;5122933;27;20046;-68
2022/09/07 01:35:40;;;;;;;10.57;6.25;;;20.30;64.50;;;;;;5122341;27;20012;-68
2022/09/07 01:38:22;;;;;;;7.22;6.53;;;20.30;64.40;;;;;;5121301;27;20019;-68
2022/09/07 01:41:20;;;;;;;10.60;7.03;;;20.30;64.40;;;;;;5121442;28;20382;-69
2022/09/07 01:44:09;;;;;;;10.52;6.07;;;20.20;64.50;;;;;;5105326;28;20470;-68
2022/09/07 01:46:59;;;;;;;7.03;6.30;;;20.20;64.60;;;;;;5122678;28;20378;-68
2022/09/07 01:49:48;;;;;;;7.15;6.15;;;20.10;64.60;;;;;;5121013;28;20094;-68
2022/09/07 01:52:27;;;;;;;9.20;7.05;;;20.10;64.60;;;;;;5096022;27;20031;-68
2022/09/07 01:55:02;;;;;;;12.75;6.82;;;20.10;64.60;;;;;;5109189;27;20032;-68
2022/09/07 01:57:35;;;;;;;11.90;7.25;;;20.10;64.80;;;;;;5101506;27;20072;-68
2022/09/07 02:00:19;;;;;;;12.77;7.67;;;20.00;64.90;;;;;;5124972;27;20023;-68
2022/09/07 02:02:53;;;;;;;10.70;7.63;;;20.00;65.20;;;;;;5124923;27;20273;-68
2022/09/07 02:05:29;;;;;;;10.13;7.30;;;20.00;65.50;;;;;;5122740;27;20016;-68
2022/09/07 02:07:55;;;;;;;9.18;7.15;;;20.00;65.80;;;;;;5116939;28;20023;-68
2022/09/07 02:10:32;;;;;;;13.18;7.10;;;20.00;65.60;;;;;;5116987;28;20487;-68
2022/09/07 02:13:22;;;;;;;21.75;8.02;;;20.00;65.70;;;;;;5098683;28;20019;-67
2022/09/07 02:16:20;;;;;;;27.90;8.82;;;20.00;65.70;;;;;;5116931;28;20027;-68
2022/09/07 02:18:49;;;;;;;24.48;9.10;;;20.00;65.70;;;;;;5083008;28;20034;-68
2022/09/07 02:21:20;;;;;;;31.50;10.45;;;20.00;65.60;;;;;;5116748;28;20523;-68
2022/09/07 02:24:14;;;;;;;20.33;7.65;;;19.90;65.70;;;;;;5116570;27;20070;-68
2022/09/07 02:26:41;;;;;;;16.92;8.25;;;19.90;65.90;;;;;;5116692;28;20019;-68
2022/09/07 02:29:07;;;;;;;19.00;7.93;;;19.90;65.70;;;;;;5116628;28;20520;-68
2022/09/07 02:31:33;;;;;;;12.07;6.90;;;19.90;66.00;;;;;;5116370;28;20051;-68
2022/09/07 02:34:00;;;;;;;16.15;7.28;;;19.90;66.00;;;;;;5116554;28;20486;-67
2022/09/07 02:36:32;;;;;;;13.93;7.53;;;19.90;66.10;;;;;;5116783;28;20020;-68
2022/09/07 02:38:58;;;;;;;12.40;7.82;;;19.90;66.10;;;;;;5116394;28;20083;-68
2022/09/07 02:41:36;;;;;;;12.38;7.43;;;19.80;65.90;;;;;;5116299;28;20023;-68
2022/09/07 02:44:07;;;;;;;11.57;7.63;;;19.80;66.20;;;;;;5116164;28;20023;-69
2022/09/07 02:46:59;;;;;;;12.88;7.63;;;19.80;66.20;;;;;;5116316;28;20016;-68
2022/09/07 02:49:35;;;;;;;10.68;7.28;;;19.80;66.40;;;;;;5074068;28;20474;-68
2022/09/07 02:52:30;;;;;;;9.95;6.88;;;19.80;66.20;;;;;;5116152;28;20419;-67
2022/09/07 02:55:23;;;;;;;12.82;7.13;;;19.70;66.30;;;;;;5079678;28;20461;-67
2022/09/07 02:58:18;;;;;;;12.30;6.82;;;19.70;66.20;;;;;;5115929;28;20467;-68
2022/09/07 03:00:58;;;;;;;9.20;7.07;;;19.70;66.30;;;;;;5086367;28;20104;-68
2022/09/07 03:04:04;;;;;;;14.02;6.97;;;19.70;66.30;;;;;;5114508;28;20073;-68
2022/09/07 03:06:40;;;;;;;9.63;7.22;;;19.70;66.50;;;;;;5115653;28;20030;-68
2022/09/07 03:09:12;;;;;;;11.15;7.65;;;19.60;66.40;;;;;;5115668;28;20051;-67
2022/09/07 03:11:38;;;;;;;10.10;7.20;;;19.60;67.20;;;;;;5097305;28;20047;-68
2022/09/07 03:14:15;;;;;;;7.95;6.65;;;19.60;66.50;;;;;;5115525;28;20028;-68
2022/09/07 03:16:42;;;;;;;17.17;8.45;;;19.60;66.60;;;;;;5115535;28;20032;-68
2022/09/07 03:19:08;;;;;;;11.00;7.18;;;19.60;66.50;;;;;;5115386;28;20027;-67
2022/09/07 03:21:34;;;;;;;10.75;7.18;;;19.60;66.70;;;;;;5115366;28;20038;-68
2022/09/07 03:24:00;;;;;;;9.75;6.68;;;19.60;66.70;;;;;;5115135;28;20501;-67
2022/09/07 03:26:26;;;;;;;13.35;7.72;;;19.60;66.70;;;;;;5115098;27;20029;-68
2022/09/07 03:28:52;;;;;;;14.80;7.55;;;19.60;67.00;;;;;;5115412;28;20057;-68
2022/09/07 03:31:19;;;;;;;9.95;7.47;;;19.50;67.40;;;;;;5115180;28;20044;-68
2022/09/07 03:33:44;;;;;;;12.77;7.82;;;19.50;67.70;;;;;;5115331;28;20019;-68
2022/09/07 03:36:10;;;;;;;10.15;7.60;;;19.50;67.30;;;;;;5115170;28;20024;-68
2022/09/07 03:38:36;;;;;;;12.18;8.27;;;19.50;67.30;;;;;;5115261;28;20097;-68
2022/09/07 03:41:05;;;;;;;10.00;7.65;;;19.50;67.50;;;;;;5115041;28;20106;-68
2022/09/07 03:43:32;;;;;;;17.58;8.93;;;19.50;67.70;;;;;;5114911;28;20481;-67
2022/09/07 03:46:02;;;;;;;10.88;7.85;;;19.50;67.50;;;;;;5114908;28;20024;-68
2022/09/07 03:48:33;;;;;;;15.68;8.65;;;19.60;67.60;;;;;;5114932;28;20024;-68
2022/09/07 03:51:03;;;;;;;10.63;7.95;;;19.60;67.60;;;;;;5114786;28;20016;-68
2022/09/07 03:53:31;;;;;;;9.35;7.65;;;19.60;68.10;;;;;;5114450;28;20463;-68
2022/09/07 03:56:05;;;;;;;14.07;8.10;;;19.60;67.30;;;;;;5114547;28;20100;-68
2022/09/07 03:58:33;;;;;;;14.23;8.02;;;19.60;67.40;;;;;;5114589;28;20028;-68
2022/09/07 04:01:03;;;;;;;10.32;8.60;;;19.50;67.40;;;;;;5114545;28;20023;-67
2022/09/07 04:03:29;;;;;;;13.23;10.63;;;19.50;67.60;;;;;;5114329;28;20016;-68
2022/09/07 04:05:57;;;;;;;11.40;8.55;;;19.50;68.10;;;;;;5114496;28;20497;-68
2022/09/07 04:08:32;;;;;;;13.15;9.85;;;19.50;68.10;;;;;;5114377;28;20102;-68
2022/09/07 04:11:00;;;;;;;16.92;10.52;;;19.50;68.30;;;;;;5114289;28;20360;-68
2022/09/07 04:13:27;;;;;;;13.80;10.07;;;19.50;68.10;;;;;;5114078;28;20027;-68
2022/09/07 04:15:53;;;;;;;16.83;10.68;;;19.50;68.30;;;;;;5114208;28;20016;-68
2022/09/07 04:18:19;;;;;;;15.73;9.13;;;19.50;68.30;;;;;;5114285;28;20542;-67
2022/09/07 04:20:45;;;;;;;17.33;10.63;;;19.50;68.10;;;;;;5114155;28;20024;-68
2022/09/07 04:23:11;;;;;;;16.38;10.07;;;19.50;68.30;;;;;;5114039;28;20053;-67
2022/09/07 04:25:37;;;;;;;13.80;9.13;;;19.50;68.20;;;;;;5114287;28;20020;-68
2022/09/07 04:28:03;;;;;;;14.60;9.63;;;19.50;68.10;;;;;;5114185;28;20023;-68
2022/09/07 04:30:29;;;;;;;18.30;9.68;;;19.50;68.30;;;;;;5114182;28;20026;-68
2022/09/07 04:32:55;;;;;;;15.50;11.57;;;19.50;68.50;;;;;;5114041;28;20468;-67
2022/09/07 04:35:21;;;;;;;14.63;9.75;;;19.50;68.50;;;;;;5114128;28;20019;-68
2022/09/07 04:37:47;;;;;;;12.68;9.20;;;19.50;68.40;;;;;;5114162;28;20012;-68
2022/09/07 04:40:13;;;;;;;13.68;9.65;;;19.40;68.20;;;;;;5113950;28;20027;-67
2022/09/07 04:42:38;;;;;;;11.65;9.73;;;19.50;68.20;;;;;;5113790;28;20375;-68
2022/09/07 04:45:05;;;;;;;12.57;9.18;;;19.40;68.10;;;;;;5113815;28;20027;-67
2022/09/07 04:47:30;;;;;;;13.07;9.02;;;19.50;68.10;;;;;;5113900;28;20098;-68
2022/09/07 04:49:56;;;;;;;18.00;8.98;;;19.40;68.10;;;;;;5095552;28;20106;-68
2022/09/07 04:52:23;;;;;;;15.52;9.45;;;19.40;68.10;;;;;;5113762;28;20410;-68
2022/09/07 04:54:49;;;;;;;22.70;11.05;;;19.40;68.20;;;;;;5113506;28;20035;-68
2022/09/07 04:57:20;;;;;;;14.90;9.55;;;19.40;68.50;;;;;;5113677;28;20023;-68
2022/09/07 04:59:47;;;;;;;15.45;9.93;;;19.40;68.50;;;;;;5113697;28;20020;-68
2022/09/07 05:02:13;;;;;;;14.27;10.32;;;19.50;68.50;;;;;;5113510;28;20122;-67
2022/09/07 05:04:38;;;;;;;20.77;11.77;;;19.50;68.60;;;;;;5113443;28;20525;-68
2022/09/07 05:07:04;;;;;;;11.55;8.77;;;19.50;68.60;;;;;;5113460;28;20016;-67
2022/09/07 05:09:30;;;;;;;12.20;9.25;;;19.50;68.50;;;;;;5113483;28;20022;-68
2022/09/07 05:11:56;;;;;;;13.90;9.27;;;19.60;68.60;;;;;;5113473;28;20028;-68
2022/09/07 05:14:22;;;;;;;15.60;10.57;;;19.60;68.60;;;;;;5113428;28;20015;-68
2022/09/07 05:16:47;;;;;;;18.95;11.77;;;19.60;68.70;;;;;;5113352;28;20031;-68
2022/09/07 05:19:13;;;;;;;14.27;10.55;;;19.70;69.00;;;;;;5113368;28;20098;-68
2022/09/07 05:21:39;;;;;;;17.48;10.77;;;19.70;69.00;;;;;;5113331;28;20077;-68
2022/09/07 05:24:06;;;;;;;18.35;9.88;;;19.70;68.90;;;;;;5113185;28;20023;-68
2022/09/07 05:26:34;;;;;;;11.75;9.40;;;19.80;69.00;;;;;;5094188;28;20403;-68
2022/09/07 05:29:03;;;;;;;22.85;11.05;;;19.80;68.80;;;;;;5113194;28;20024;-68
2022/09/07 05:31:29;;;;;;;18.95;12.35;;;19.90;68.90;;;;;;5122871;27;20525;-68
2022/09/07 05:33:59;;;;;;;18.60;12.30;;;19.90;68.80;;;;;;5132947;27;20473;-68
2022/09/07 05:36:26;;;;;;;21.05;10.85;;;20.00;68.90;;;;;;5132661;27;20057;-68
2022/09/07 05:38:53;;;;;;;17.27;11.02;;;20.10;68.80;;;;;;5132739;27;20456;-69
2022/09/07 05:41:22;;;;;;;15.30;10.73;;;20.10;68.70;;;;;;5132595;27;20034;-68
2022/09/07 05:43:48;;;;;;;13.07;9.93;;;20.20;68.50;;;;;;5132510;28;20030;-68
2022/09/07 05:46:15;;;;;;;17.63;10.70;;;20.30;68.20;;;;;;5132587;28;20027;-68
2022/09/07 05:48:41;;;;;;;15.40;11.85;;;20.30;68.10;;;;;;5132449;28;20011;-67
2022/09/07 05:51:07;;;;;;;21.23;11.48;;;20.30;68.00;;;;;;5125924;28;20026;-68
2022/09/07 05:53:35;;;;;;;15.45;11.52;;;20.40;68.20;;;;;;5121400;28;20384;-67
2022/09/07 05:56:01;;;;;;;27.67;11.50;;;20.40;68.10;;;;;;5120796;28;20047;-68
2022/09/07 05:58:27;;;;;;;19.38;11.98;;;20.50;68.20;;;;;;5121627;28;20416;-68
2022/09/07 06:00:58;;;;;;;20.83;12.35;;;20.60;68.20;;;;;;5102860;28;20028;-68
2022/09/07 06:03:24;;;;;;;24.40;14.65;;;20.60;68.10;;;;;;5118310;28;20034;-68
2022/09/07 06:06:18;;;;;;;19.95;14.50;;;20.70;67.90;;;;;;5119910;28;20027;-68
2022/09/07 06:08:49;;;;;;;20.42;14.77;;;20.80;67.80;;;;;;5121246;28;20098;-68
2022/09/07 06:11:19;;;;;;;26.60;14.57;;;20.90;67.70;;;;;;5123810;28;20228;-68
2022/09/07 06:13:45;;;;;;;17.55;12.95;;;21.00;67.60;;;;;;5123212;28;20494;-68
2022/09/07 06:16:12;;;;;;;16.10;11.85;;;21.10;67.50;;;;;;5117541;28;20042;-68
2022/09/07 06:18:41;;;;;;;16.42;11.90;;;21.10;67.30;;;;;;5125529;28;20022;-68
2022/09/07 06:21:09;;;;;;;20.55;11.88;;;21.20;67.20;;;;;;5132951;28;20077;-68
2022/09/07 06:23:37;;;;;;;29.90;13.70;;;21.30;67.10;;;;;;5131274;28;20030;-68
2022/09/07 06:26:03;;;;;;;24.20;12.52;;;21.40;66.80;;;;;;5133177;28;20020;-68
2022/09/07 06:28:30;;;;;;;23.15;12.02;;;21.50;66.40;;;;;;5133091;28;20493;-68
2022/09/07 06:31:06;;;;;;;16.20;12.57;;;21.60;66.40;;;;;;5133100;28;20099;-68
2022/09/07 06:33:33;;;;;;;19.83;12.18;;;21.70;66.10;;;;;;5116461;28;20031;-68
2022/09/07 06:36:01;;;;;;;17.23;11.55;;;21.80;66.00;;;;;;5117474;28;20028;-68
2022/09/07 06:38:32;;;;;;;19.30;12.95;;;21.90;65.80;;;;;;5118475;28;20028;-68
2022/09/07 06:41:11;;;;;;;21.08;13.20;;;22.00;65.40;;;;;;5116227;28;20363;-68
2022/09/07 06:43:36;;;;;;;21.13;12.68;;;22.10;65.00;;;;;;5116283;28;20030;-68
2022/09/07 06:46:03;;;;;;;18.75;11.40;;;22.20;64.80;;;;;;5116191;28;20024;-68
2022/09/07 06:48:29;;;;;;;21.00;13.05;;;22.30;64.60;;;;;;5116197;28;20431;-68
2022/09/07 06:51:02;;;;;;;30.83;16.48;;;22.50;64.50;;;;;;5116118;28;20095;-67
2022/09/07 06:53:33;;;;;;;22.23;14.80;;;22.60;63.70;;;;;;5097720;28;20016;-68
2022/09/07 06:55:59;;;;;;;19.80;13.77;;;22.70;63.50;;;;;;5116098;28;20088;-67
2022/09/07 06:58:26;;;;;;;21.85;14.45;;;22.80;63.20;;;;;;5116005;28;20077;-69
2022/09/07 07:00:53;;;;;;;30.70;17.10;;;22.90;62.70;;;;;;5115866;28;20035;-69
2022/09/07 07:03:20;;;;;;;23.65;15.07;;;23.00;61.90;;;;;;5115866;28;20054;-68
2022/09/07 07:05:53;;;;;;;29.52;16.38;;;23.00;61.70;;;;;;5116147;28;20019;-68
2022/09/07 07:08:20;;;;;;;22.73;15.05;;;23.10;61.10;;;;;;5115742;28;20020;-67
2022/09/07 07:10:46;;;;;;;23.48;14.77;;;23.10;60.90;;;;;;5115874;28;20103;-68
2022/09/07 07:13:12;;;;;;;24.27;15.63;;;23.10;60.80;;;;;;5097362;28;20449;-68
2022/09/07 07:15:37;;;;;;;27.23;14.93;;;23.10;60.70;;;;;;5115939;28;20019;-67
2022/09/07 07:18:03;;;;;;;22.10;16.88;;;23.10;60.50;;;;;;5115604;28;20028;-67
2022/09/07 07:20:29;;;;;;;24.92;15.85;;;23.10;60.10;;;;;;5097245;28;20032;-67
2022/09/07 07:22:55;;;;;;;19.80;15.20;;;23.00;60.10;;;;;;5115420;27;20172;-68
2022/09/07 07:25:21;;;;;;;23.13;15.57;;;23.10;61.00;;;;;;5115179;27;20028;-68
2022/09/07 07:27:48;;;;;;;19.83;14.73;;;23.10;60.20;;;;;;5115430;28;20525;-68
2022/09/07 07:30:15;;;;;;;29.20;16.48;;;23.10;60.30;;;;;;5115361;28;20016;-68
2022/09/07 07:32:41;;;;;;;26.27;17.42;;;23.10;60.30;;;;;;5115025;28;20036;-68
2022/09/07 07:35:08;;;;;;;32.60;17.85;;;23.20;60.20;;;;;;5115225;28;20099;-68
2022/09/07 07:37:35;;;;;;;22.92;16.95;;;23.20;59.80;;;;;;5115166;28;20012;-68
2022/09/07 07:40:04;;;;;;;20.83;15.02;;;23.30;59.80;;;;;;5115086;28;20024;-68
2022/09/07 07:42:31;;;;;;;22.63;14.75;;;23.30;59.80;;;;;;5115341;28;20028;-68
2022/09/07 07:44:57;;;;;;;27.20;14.90;;;23.40;59.70;;;;;;5115006;28;20023;-68
2022/09/07 07:47:23;;;;;;;17.83;12.43;;;23.40;59.20;;;;;;5114995;28;20076;-68
2022/09/07 07:49:48;;;;;;;14.98;11.20;;;23.50;58.90;;;;;;5114543;28;20442;-68
2022/09/07 07:52:15;;;;;;;15.18;11.02;;;23.50;58.70;;;;;;5114947;28;20043;-68
2022/09/07 07:54:42;;;;;;;16.75;10.27;;;23.60;58.90;;;;;;5114652;28;20364;-68
2022/09/07 07:57:08;;;;;;;16.48;10.10;;;23.60;58.90;;;;;;5114745;28;20074;-68
2022/09/07 07:59:34;;;;;;;11.85;9.52;;;23.70;58.80;;;;;;5114690;28;20482;-69
2022/09/07 08:02:03;;;;;;;13.13;9.77;;;23.70;58.60;;;;;;5114819;28;20023;-69
2022/09/07 08:04:33;;;;;;;16.27;9.23;;;23.80;58.50;;;;;;5096388;28;20032;-68
2022/09/07 08:06:59;;;;;;;11.05;8.65;;;23.80;58.40;;;;;;5114642;28;20015;-69
2022/09/07 08:09:25;;;;;;;17.70;8.45;;;23.90;58.20;;;;;;5114569;28;20076;-69
2022/09/07 08:11:51;;;;;;;17.58;8.25;;;23.90;58.30;;;;;;5114584;28;20016;-69
2022/09/07 08:14:17;;;;;;;14.48;9.63;;;24.00;58.30;;;;;;5114500;28;20036;-68
2022/09/07 08:16:43;;;;;;;13.93;9.85;;;24.00;58.20;;;;;;5114487;28;20027;-69
2022/09/07 08:19:09;;;;;;;16.95;10.13;;;24.10;57.90;;;;;;5114348;28;20024;-68
2022/09/07 08:21:35;;;;;;;10.63;8.63;;;24.20;57.90;;;;;;5114309;28;20092;-69
2022/09/07 08:24:04;;;;;;;12.95;8.77;;;24.20;57.70;;;;;;5114195;28;20073;-69
2022/09/07 08:26:30;;;;;;;34.58;11.15;;;24.30;57.70;;;;;;5096051;28;20364;-69
2022/09/07 08:28:57;;;;;;;17.58;10.30;;;24.40;57.60;;;;;;5114244;28;20077;-69
2022/09/07 08:31:22;;;;;;;12.48;9.10;;;24.40;57.20;;;;;;5114145;28;20034;-69
2022/09/07 08:33:48;;;;;;;16.52;9.73;;;24.50;56.90;;;;;;5114257;28;20386;-69
2022/09/07 08:36:16;;;;;;;16.23;10.00;;;24.50;57.10;;;;;;5114171;28;20539;-69
2022/09/07 08:38:43;;;;;;;25.95;10.90;;;24.60;56.70;;;;;;5113957;28;20026;-68
2022/09/07 08:41:21;;;;;;;12.73;9.20;;;24.60;56.20;;;;;;5095641;28;20444;-68
2022/09/07 08:43:58;;;;;;;13.82;8.93;;;24.60;56.30;;;;;;5113891;28;20030;-68
2022/09/07 08:46:47;;;;;;;18.60;10.65;;;24.70;56.30;;;;;;5113988;28;20024;-68
2022/09/07 08:49:28;;;;;;;13.10;8.52;;;24.80;56.10;;;;;;5113771;28;20015;-68
2022/09/07 08:52:02;;;;;;;14.90;9.45;;;24.90;56.00;;;;;;5113923;28;20029;-68
2022/09/07 08:54:29;;;;;;;15.18;9.85;;;25.00;55.70;;;;;;5113654;28;20030;-68
2022/09/07 08:57:00;;;;;;;16.95;11.23;;;25.10;55.80;;;;;;5113656;28;20024;-68
2022/09/07 08:59:47;;;;;;;14.23;9.20;;;25.10;55.30;;;;;;5113629;28;20022;-68
2022/09/07 09:02:16;;;;;;;16.58;10.00;;;25.10;55.70;;;;;;5113014;28;20020;-69
2022/09/07 09:04:42;;;;;;;15.38;10.82;;;25.20;55.50;;;;;;5113499;28;20024;-69
2022/09/07 09:07:36;;;;;;;14.30;10.15;;;25.30;55.50;;;;;;5095249;28;20027;-69
2022/09/07 09:10:18;;;;;;;17.65;12.02;;;25.40;55.70;;;;;;5113541;28;20004;-69
2022/09/07 09:12:51;;;;;;;20.83;13.68;;;25.50;55.40;;;;;;5113470;28;20494;-68
2022/09/07 09:15:25;;;;;;;19.58;11.82;;;25.60;54.40;;;;;;5095169;28;21116;-68
2022/09/07 09:18:00;;;;;;;13.60;9.90;;;25.70;54.70;;;;;;5095149;28;20011;-67
2022/09/07 09:20:36;;;;;;;14.80;10.65;;;25.80;54.40;;;;;;5113275;28;20023;-68
2022/09/07 09:23:11;;;;;;;19.45;12.65;;;25.90;54.40;;;;;;5094998;28;20039;-67
2022/09/07 09:25:41;;;;;;;17.13;12.25;;;26.00;54.10;;;;;;5102205;27;20428;-68
2022/09/07 09:28:11;;;;;;;16.35;11.05;;;26.10;53.80;;;;;;5133681;27;20095;-68
2022/09/07 09:30:37;;;;;;;18.98;12.10;;;26.10;53.90;;;;;;5134155;27;20424;-68
2022/09/07 09:33:24;;;;;;;18.90;11.60;;;26.20;54.00;;;;;;5133467;27;20082;-68
2022/09/07 09:35:53;;;;;;;20.45;11.43;;;26.20;53.80;;;;;;5133436;27;20401;-68
2022/09/07 09:38:38;;;;;;;17.10;11.85;;;26.30;53.40;;;;;;5114864;27;20103;-68
2022/09/07 09:41:04;;;;;;;21.35;14.15;;;26.30;53.70;;;;;;5133230;27;20102;-68
2022/09/07 09:43:38;;;;;;;18.52;13.38;;;26.40;53.20;;;;;;5115028;28;20583;-68
2022/09/07 09:46:35;;;;;;;22.20;13.20;;;26.40;53.00;;;;;;5133494;28;20015;-68
2022/09/07 09:49:04;;;;;;;27.92;12.60;;;26.50;52.50;;;;;;5133482;28;20378;-68
2022/09/07 09:51:40;;;;;;;40.78;13.77;;;26.60;52.80;;;;;;5133391;28;20470;-68
2022/09/07 09:54:27;;;;;;;27.15;15.30;;;26.70;53.00;;;;;;5125179;28;20035;-67
2022/09/07 09:56:53;;;;;;;18.45;11.57;;;26.80;52.70;;;;;;5112894;28;20098;-68
2022/09/07 09:59:23;;;;;;;20.52;10.85;;;26.80;52.30;;;;;;5112865;28;20059;-68
2022/09/07 10:01:49;;;;;;;18.40;12.73;;;26.90;52.40;;;;;;5112923;28;20024;-67
2022/09/07 10:04:24;;;;;;;19.38;12.32;;;26.90;51.80;;;;;;5112599;28;20076;-68
2022/09/07 10:06:53;;;;;;;22.58;13.30;;;26.90;52.10;;;;;;5122776;28;20393;-68
2022/09/07 10:09:28;;;;;;;19.10;11.63;;;27.00;51.80;;;;;;5133211;28;20478;-68
2022/09/07 10:12:01;;;;;;;16.83;9.38;;;27.00;51.90;;;;;;5134160;27;20038;-67
2022/09/07 10:14:34;;;;;;;13.05;8.38;;;27.10;51.70;;;;;;5137383;27;20381;-68
2022/09/07 10:17:08;;;;;;;11.00;7.10;;;27.20;51.90;;;;;;5137274;27;20051;-68
2022/09/07 10:19:39;;;;;;;15.82;7.00;;;27.30;51.70;;;;;;5137288;27;20080;-68
2022/09/07 10:22:24;;;;;;;11.15;6.47;;;27.40;51.80;;;;;;5137310;27;20054;-68
2022/09/07 10:24:50;;;;;;;10.82;6.38;;;27.40;51.60;;;;;;5122970;27;20412;-68
2022/09/07 10:27:36;;;;;;;12.98;6.57;;;27.50;51.70;;;;;;5116682;28;20027;-68
2022/09/07 10:30:11;;;;;;;11.70;6.45;;;27.60;51.60;;;;;;5116790;28;20016;-67
2022/09/07 10:32:45;;;;;;;10.00;6.40;;;27.60;50.70;;;;;;5116347;28;20055;-68
2022/09/07 10:35:20;;;;;;;10.15;5.90;;;27.70;51.00;;;;;;5098272;28;20038;-68
2022/09/07 10:38:23;;;;;;;20.23;7.70;;;27.80;51.20;;;;;;5116472;28;20127;-68
2022/09/07 10:41:00;;;;;;;13.75;6.80;;;27.80;51.10;;;;;;5033362;28;20417;-68
2022/09/07 10:43:31;;;;;;;9.18;5.30;;;27.80;50.70;;;;;;5033309;28;20524;-68
2022/09/07 10:46:02;;;;;;;9.52;6.40;;;27.90;50.70;;;;;;5033328;28;20017;-68
2022/09/07 10:48:34;;;;;;;9.23;5.75;;;28.00;50.40;;;;;;5033250;28;20112;-68
2022/09/07 10:51:09;;;;;;;6.60;5.10;;;28.20;50.60;;;;;;5033350;28;20065;-68
2022/09/07 10:53:59;;;;;;;10.82;5.20;;;28.30;50.00;;;;;;5038294;28;20107;-68
2022/09/07 10:56:31;;;;;;;9.65;5.20;;;28.50;50.50;;;;;;5033195;28;20485;-67
2022/09/07 10:58:56;;;;;;;6.60;5.20;;;28.80;49.80;;;;;;5016818;28;20026;-67
2022/09/07 11:01:40;;;;;;;9.43;5.13;;;29.10;49.60;;;;;;5033241;28;20087;-67
2022/09/07 11:04:59;;;;;;;6.40;5.30;;;29.30;48.70;;;;;;5032901;28;20116;-68
2022/09/07 11:07:59;;;;;;;9.82;4.95;;;29.60;48.80;;;;;;4973856;28;20026;-68
2022/09/07 11:11:06;;;;;;;5.20;4.47;;;29.80;48.00;;;;;;4974097;28;20446;-68
2022/09/07 11:13:37;;;;;;;6.53;5.03;;;30.00;47.50;;;;;;4961482;28;20041;-68
2022/09/07 11:16:13;;;;;;;7.88;4.50;;;30.10;47.00;;;;;;5032850;28;20112;-68
2022/09/07 11:19:21;;;;;;;6.05;4.47;;;30.30;47.00;;;;;;5033218;28;20389;-68
2022/09/07 11:22:18;;;;;;;6.70;4.72;;;30.40;46.50;;;;;;4973959;28;20042;-68
2022/09/07 11:24:58;;;;;;;5.30;3.50;;;30.60;46.70;;;;;;4965654;28;20046;-68
2022/09/07 11:27:43;;;;;;;5.30;3.47;;;30.80;46.30;;;;;;4973505;28;20050;-68
2022/09/07 11:30:19;;;;;;;8.57;3.95;;;30.80;46.00;;;;;;4974015;28;20035;-68
2022/09/07 11:33:13;;;;;;;7.53;3.47;;;30.90;44.30;;;;;;4973609;28;20494;-68
2022/09/07 11:36:01;;;;;;;4.43;3.35;;;31.00;44.40;;;;;;4973750;28;20054;-67
2022/09/07 11:38:34;;;;;;;7.95;3.28;;;31.00;44.60;;;;;;4967410;28;20101;-67
2022/09/07 11:41:18;;;;;;;11.73;4.03;;;31.00;43.20;;;;;;4993295;28;20392;-67
2022/09/07 11:43:47;;;;;;;10.13;4.00;;;31.00;43.40;;;;;;5032277;28;20060;-67
2022/09/07 11:46:36;;;;;;;8.50;3.25;;;31.00;43.80;;;;;;5032311;28;20044;-67
2022/09/07 11:49:06;;;;;;;7.25;4.07;;;31.00;43.80;;;;;;5032336;28;20025;-68
2022/09/07 11:51:43;;;;;;;7.07;3.72;;;30.90;43.30;;;;;;5039347;28;20080;-67
2022/09/07 11:54:27;;;;;;;10.05;4.03;;;30.80;43.60;;;;;;5114727;27;20015;-67
2022/09/07 11:57:14;;;;;;;6.68;3.60;;;30.70;43.80;;;;;;5114834;28;20107;-67
2022/09/07 12:00:19;;;;;;;7.03;3.72;;;30.60;43.80;;;;;;5114755;28;20020;-67
2022/09/07 12:03:22;;;;;;;6.32;4.22;;;30.40;44.00;;;;;;5031899;28;20404;-67
2022/09/07 12:06:09;;;;;;;9.73;3.83;;;30.30;44.30;;;;;;5015328;28;20052;-67
2022/09/07 12:09:04;;;;;;;8.52;4.00;;;30.20;44.60;;;;;;5086410;28;20032;-67
2022/09/07 12:11:29;;;;;;;8.73;3.97;;;30.10;44.70;;;;;;5114573;28;20081;-67
2022/09/07 12:14:19;;;;;;;4.43;3.50;;;30.10;44.70;;;;;;5096432;28;20028;-67
2022/09/07 12:16:58;;;;;;;4.80;3.30;;;30.00;44.80;;;;;;5114495;28;20024;-67
2022/09/07 12:19:26;;;;;;;5.63;3.40;;;30.00;44.30;;;;;;5114344;28;20465;-67
2022/09/07 12:21:52;;;;;;;4.82;3.67;;;30.00;44.70;;;;;;5096122;28;20023;-67
2022/09/07 12:24:41;;;;;;;4.82;3.22;;;30.00;44.70;;;;;;5114012;28;20360;-67
2022/09/07 12:27:19;;;;;;;6.45;3.80;;;30.00;44.80;;;;;;5114265;28;20051;-67
2022/09/07 12:29:47;;;;;;;5.47;3.55;;;30.00;44.90;;;;;;5114153;28;20458;-67
2022/09/07 12:32:33;;;;;;;6.53;3.13;;;30.00;44.80;;;;;;5113973;28;20058;-67
2022/09/07 12:34:58;;;;;;;7.85;3.75;;;30.00;45.00;;;;;;5113796;28;20024;-67
2022/09/07 12:37:38;;;;;;;7.25;3.45;;;30.00;45.00;;;;;;5095768;28;20050;-67
2022/09/07 12:40:26;;;;;;;6.93;3.40;;;30.00;45.10;;;;;;5114005;28;20439;-67
2022/09/07 12:43:13;;;;;;;9.30;3.90;;;30.10;45.10;;;;;;5113946;28;20319;-67
2022/09/07 12:45:38;;;;;;;4.22;3.30;;;30.10;44.60;;;;;;5113940;28;20034;-68
2022/09/07 12:48:45;;;;;;;7.72;3.45;;;30.20;44.10;;;;;;5113806;28;20095;-68
2022/09/07 12:51:33;;;;;;;5.40;4.03;;;30.20;44.00;;;;;;5108624;28;20059;-68
2022/09/07 12:54:37;;;;;;;4.82;3.13;;;30.20;44.00;;;;;;5113559;28;20517;-68
2022/09/07 12:57:12;;;;;;;4.00;3.33;;;30.20;43.90;;;;;;5113745;28;20497;-68
2022/09/07 12:59:50;;;;;;;10.35;2.90;;;30.30;43.90;;;;;;5113650;28;20467;-68
2022/09/07 13:02:41;;;;;;;6.32;3.22;;;30.40;43.50;;;;;;5113704;28;20024;-68
2022/09/07 13:05:12;;;;;;;8.55;3.33;;;30.40;43.80;;;;;;5113605;28;20107;-68
2022/09/07 13:07:41;;;;;;;3.65;3.05;;;30.50;43.60;;;;;;5095375;28;20072;-68